createdAt,value
2022-10-18T00:00:21.222Z,93.78
2022-10-18T00:02:50.113Z,92.92
2022-10-18T00:05:19.005Z,93.47
2022-10-18T00:07:47.801Z,94.55
2022-10-18T00:10:16.913Z,95.07
2022-10-18T00:15:15.407Z,95.43
2022-10-18T00:17:45.975Z,95.43
2022-10-18T00:20:15.332Z,95.96
2022-10-18T00:22:44.019Z,95.78
2022-10-18T00:25:13.051Z,96.66
2022-10-18T00:27:42.215Z,95.87
2022-10-18T00:30:11.813Z,95.52
2022-10-18T00:32:42.403Z,96.76
2022-10-18T00:38:27.224Z,96.50
2022-10-18T00:42:22.915Z,96.75
2022-10-18T00:45:06.147Z,97.13
2022-10-18T00:47:36.935Z,97.53
2022-10-18T00:50:07.947Z,96.70
2022-10-18T00:52:40.776Z,96.63
2022-10-18T00:55:11.871Z,95.89
2022-10-18T00:57:43.844Z,96.15
2022-10-18T01:00:13.962Z,97.13
2022-10-18T01:02:45.593Z,95.99
2022-10-18T01:05:15.638Z,96.04
2022-10-18T01:08:08.100Z,96.51
2022-10-18T01:10:46.757Z,96.59
2022-10-18T01:13:26.976Z,95.38
2022-10-18T01:16:01.785Z,94.97
2022-10-18T01:18:36.225Z,95.66
2022-10-18T01:21:26.871Z,95.37
2022-10-18T01:24:46.932Z,94.65
2022-10-18T01:27:36.934Z,96.27
2022-10-18T01:30:44.200Z,95.17
2022-10-18T01:33:24.641Z,94.46
2022-10-18T01:35:59.800Z,94.84
2022-10-18T01:38:31.207Z,95.13
2022-10-18T01:41:04.376Z,95.24
2022-10-18T01:43:35.557Z,95.00
2022-10-18T01:46:05.794Z,94.32
2022-10-18T01:48:38.111Z,94.34
2022-10-18T01:51:07.168Z,93.42
2022-10-18T01:53:36.509Z,93.89
2022-10-18T01:56:20.572Z,93.60
2022-10-18T01:59:02.425Z,93.25
2022-10-18T02:01:43.706Z,92.71
2022-10-18T02:04:21.618Z,91.83
2022-10-18T02:06:56.647Z,91.87
2022-10-18T02:09:35.175Z,92.12
2022-10-18T02:12:06.010Z,91.07
2022-10-18T02:14:36.221Z,91.57
2022-10-18T02:17:08.786Z,90.82
2022-10-18T02:19:43.119Z,91.22
2022-10-18T02:22:14.068Z,91.68
2022-10-18T02:24:47.762Z,90.37
2022-10-18T02:27:16.888Z,92.04
2022-10-18T02:29:46.784Z,90.18
2022-10-18T02:32:21.287Z,90.68
2022-10-18T02:34:59.634Z,90.64
2022-10-18T02:37:32.077Z,89.56
2022-10-18T02:40:01.082Z,89.63
2022-10-18T02:42:35.919Z,89.68
2022-10-18T02:45:08.492Z,89.45
2022-10-18T02:47:37.789Z,88.88
2022-10-18T02:50:10.443Z,90.40
2022-10-18T02:52:39.735Z,88.88
2022-10-18T02:55:09.873Z,89.50
2022-10-18T02:57:39.009Z,89.42
2022-10-18T03:00:13.716Z,88.83
2022-10-18T03:02:42.565Z,89.57
2022-10-18T03:05:13.022Z,88.65
2022-10-18T03:07:41.952Z,88.74
2022-10-18T03:10:11.168Z,88.76
2022-10-18T03:12:39.860Z,87.55
2022-10-18T03:15:09.336Z,88.36
2022-10-18T03:17:38.135Z,86.87
2022-10-18T03:20:08.302Z,87.07
2022-10-18T03:22:38.750Z,86.00
2022-10-18T03:25:11.237Z,85.82
2022-10-18T03:27:44.107Z,86.30
2022-10-18T03:30:13.886Z,86.76
2022-10-18T03:32:42.728Z,86.65
2022-10-18T03:35:13.160Z,85.17
2022-10-18T03:37:43.624Z,84.72
2022-10-18T03:40:13.156Z,86.47
2022-10-18T03:42:50.544Z,85.01
2022-10-18T03:45:24.446Z,85.07
2022-10-18T03:47:55.215Z,84.27
2022-10-18T03:50:26.776Z,84.73
2022-10-18T03:52:57.415Z,85.77
2022-10-18T03:55:26.509Z,86.59
2022-10-18T03:57:55.494Z,86.85
2022-10-18T04:00:24.370Z,87.51
2022-10-18T04:02:55.121Z,86.47
2022-10-18T04:05:27.017Z,86.70
2022-10-18T04:07:57.341Z,86.61
2022-10-18T04:10:26.486Z,85.35
2022-10-18T04:12:55.359Z,85.87
2022-10-18T04:15:24.724Z,84.82
2022-10-18T04:17:53.899Z,83.66
2022-10-18T04:20:22.819Z,81.85
2022-10-18T04:22:55.052Z,81.94
2022-10-18T04:25:26.010Z,81.36
2022-10-18T04:27:54.765Z,81.71
2022-10-18T04:30:23.716Z,81.54
2022-10-18T04:32:52.426Z,82.01
2022-10-18T04:35:24.634Z,81.25
2022-10-18T04:37:53.436Z,82.65
2022-10-18T04:40:26.704Z,81.30
2022-10-18T04:42:55.892Z,80.99
2022-10-18T04:45:25.000Z,81.55
2022-10-18T04:47:54.204Z,80.93
2022-10-18T04:50:23.136Z,81.46
2022-10-18T04:52:54.132Z,80.00
2022-10-18T04:55:35.436Z,81.59
2022-10-18T04:58:05.729Z,79.75
2022-10-18T05:00:39.211Z,80.93
2022-10-18T05:03:23.843Z,80.33
2022-10-18T05:06:08.028Z,79.53
2022-10-18T05:08:38.693Z,79.40
2022-10-18T05:13:39.277Z,79.63
2022-10-18T05:16:08.874Z,79.54
2022-10-18T05:18:37.921Z,79.41
2022-10-18T05:21:07.225Z,79.18
2022-10-18T05:23:36.407Z,78.54
2022-10-18T05:26:07.087Z,78.94
2022-10-18T05:28:40.549Z,78.23
2022-10-18T05:31:12.736Z,78.53
2022-10-18T05:33:42.272Z,77.15
2022-10-18T05:36:12.059Z,78.05
2022-10-18T05:38:43.564Z,77.55
2022-10-18T05:41:13.927Z,77.42
2022-10-18T05:43:43.070Z,75.17
2022-10-18T05:46:15.408Z,74.96
2022-10-18T05:48:45.478Z,73.77
2022-10-18T05:51:14.409Z,74.78
2022-10-18T05:53:43.849Z,74.92
2022-10-18T05:56:12.977Z,74.77
2022-10-18T05:58:42.274Z,75.64
2022-10-18T06:01:12.231Z,74.46
2022-10-18T06:03:44.807Z,73.84
2022-10-18T06:06:15.159Z,75.26
2022-10-18T06:08:45.583Z,74.32
2022-10-18T06:11:17.039Z,73.71
2022-10-18T06:13:48.558Z,73.57
2022-10-18T06:16:19.450Z,73.02
2022-10-18T06:18:51.568Z,73.51
2022-10-18T06:21:32.145Z,72.86
2022-10-18T06:24:02.090Z,72.43
2022-10-18T06:26:31.341Z,71.53
2022-10-18T06:29:00.917Z,71.15
2022-10-18T06:31:30.806Z,70.91
2022-10-18T06:34:02.918Z,70.24
2022-10-18T06:36:32.683Z,69.72
2022-10-18T06:39:02.794Z,68.60
2022-10-18T06:41:33.804Z,66.96
2022-10-18T06:44:21.250Z,66.22
2022-10-18T06:46:54.047Z,66.42
2022-10-18T06:49:24.478Z,66.33
2022-10-18T06:51:55.530Z,64.30
2022-10-18T06:54:24.789Z,63.13
2022-10-18T06:56:57.383Z,61.05
2022-10-18T06:59:31.143Z,60.90
2022-10-18T07:02:00.523Z,60.03
2022-10-18T07:04:34.370Z,60.12
2022-10-18T07:07:03.258Z,60.13
2022-10-18T07:09:39.118Z,59.95
2022-10-18T07:12:08.444Z,59.66
2022-10-18T07:14:37.158Z,59.15
2022-10-18T07:17:10.484Z,57.47
2022-10-18T07:19:40.959Z,56.63
2022-10-18T07:23:00.386Z,55.27
2022-10-18T07:25:10.764Z,55.60
2022-10-18T07:27:42.300Z,54.77
2022-10-18T07:30:12.546Z,54.05
2022-10-18T07:32:44.277Z,53.19
2022-10-18T07:35:14.710Z,52.53
2022-10-18T07:38:13.098Z,51.54
2022-10-18T07:40:45.728Z,51.15
2022-10-18T07:43:16.150Z,50.84
2022-10-18T07:46:06.498Z,49.83
2022-10-18T07:48:36.149Z,50.65
2022-10-18T07:51:06.931Z,49.66
2022-10-18T07:53:36.030Z,50.33
2022-10-18T07:56:25.694Z,50.11
2022-10-18T07:58:58.805Z,49.26
2022-10-18T08:01:28.049Z,49.55
2022-10-18T08:04:00.197Z,49.60
2022-10-18T08:06:36.130Z,49.79
2022-10-18T08:09:06.100Z,49.33
2022-10-18T08:11:37.674Z,49.99
2022-10-18T08:14:08.286Z,49.46
2022-10-18T08:16:47.878Z,48.84
2022-10-18T08:19:23.620Z,49.09
2022-10-18T08:21:54.275Z,49.10
2022-10-18T08:24:28.451Z,48.95
2022-10-18T08:26:58.949Z,49.32
2022-10-18T08:29:31.518Z,49.73
2022-10-18T08:32:01.427Z,49.44
2022-10-18T08:34:30.529Z,49.55
2022-10-18T08:37:03.218Z,49.69
2022-10-18T08:39:36.130Z,48.82
2022-10-18T08:42:33.346Z,49.27
2022-10-18T08:45:12.788Z,49.26
2022-10-18T08:47:54.031Z,49.16
2022-10-18T08:50:37.818Z,49.30
2022-10-18T08:53:18.583Z,48.22
2022-10-18T08:56:01.104Z,49.26
2022-10-18T08:58:32.553Z,48.71
2022-10-18T09:01:17.251Z,48.55
2022-10-18T09:04:07.570Z,47.48
2022-10-18T09:06:44.684Z,47.44
2022-10-18T09:09:31.046Z,47.46
2022-10-18T09:12:10.221Z,46.82
2022-10-18T09:14:55.035Z,47.07
2022-10-18T09:17:37.014Z,46.58
2022-10-18T09:20:43.687Z,46.56
2022-10-18T09:23:21.014Z,45.84
2022-10-18T09:25:56.313Z,45.42
2022-10-18T09:28:39.889Z,45.29
2022-10-18T09:31:18.406Z,45.79
2022-10-18T09:34:04.653Z,45.85
2022-10-18T09:36:37.928Z,44.86
2022-10-18T09:39:14.563Z,44.42
2022-10-18T09:41:53.458Z,43.97
2022-10-18T09:44:42.759Z,44.92
2022-10-18T09:47:45.039Z,44.71
2022-10-18T09:50:30.987Z,44.08
2022-10-18T09:53:08.108Z,44.66
2022-10-18T09:55:42.806Z,43.74
2022-10-18T09:58:16.040Z,44.17
2022-10-18T10:00:49.444Z,43.50
2022-10-18T10:03:18.484Z,39.21
2022-10-18T10:05:47.664Z,37.96
2022-10-18T10:08:16.526Z,35.83
2022-10-18T10:10:55.181Z,33.23
2022-10-18T10:13:37.448Z,35.59
2022-10-18T10:16:09.975Z,33.97
2022-10-18T10:18:55.412Z,31.04
2022-10-18T10:21:25.587Z,33.47
2022-10-18T10:23:59.859Z,31.69
2022-10-18T10:26:33.342Z,32.37
2022-10-18T10:29:48.961Z,30.27
2022-10-18T10:32:20.634Z,30.62
2022-10-18T10:34:50.470Z,30.77
2022-10-18T10:37:31.705Z,27.91
2022-10-18T10:40:18.431Z,26.55
2022-10-18T10:43:12.772Z,27.86
2022-10-18T10:46:02.873Z,25.09
2022-10-18T10:48:39.175Z,26.68
2022-10-18T10:51:11.615Z,29.43
2022-10-18T10:54:02.363Z,25.69
2022-10-18T10:56:43.697Z,26.66
2022-10-18T10:59:18.825Z,25.27
2022-10-18T11:01:51.596Z,26.40
2022-10-18T11:04:25.460Z,24.28
2022-10-18T11:07:06.906Z,24.05
2022-10-18T11:09:47.668Z,27.55
2022-10-18T11:12:26.669Z,25.56
2022-10-18T11:15:10.140Z,25.74
2022-10-18T11:17:48.914Z,25.84
2022-10-18T11:20:25.187Z,27.19
2022-10-18T11:23:03.198Z,26.11
2022-10-18T11:25:51.927Z,25.28
2022-10-18T11:28:33.803Z,25.72
2022-10-18T11:31:16.076Z,26.22
2022-10-18T11:34:09.270Z,23.96
2022-10-18T11:36:57.878Z,26.94
2022-10-18T11:39:54.229Z,24.26
2022-10-18T11:42:31.375Z,25.51
2022-10-18T11:45:09.497Z,22.14
2022-10-18T11:47:55.874Z,26.05
2022-10-18T11:50:36.925Z,25.56
2022-10-18T11:53:18.252Z,22.91
2022-10-18T11:55:58.233Z,24.34
2022-10-18T11:58:41.850Z,20.68
2022-10-18T12:01:34.495Z,19.84
2022-10-18T12:04:58.546Z,22.59
2022-10-18T12:07:54.457Z,24.62
2022-10-18T12:10:37.694Z,23.36
2022-10-18T12:13:19.160Z,24.81
2022-10-18T12:15:49.012Z,24.38
2022-10-18T12:18:20.971Z,23.28
2022-10-18T12:20:52.549Z,23.59
2022-10-18T12:23:34.684Z,23.33
2022-10-18T12:26:06.075Z,24.28
2022-10-18T12:28:46.158Z,23.93
2022-10-18T12:31:23.260Z,22.28
2022-10-18T12:33:56.690Z,22.14
2022-10-18T12:37:09.843Z,21.81
2022-10-18T12:40:08.981Z,20.47
2022-10-18T12:42:46.357Z,22.83
2022-10-18T12:45:29.249Z,23.82
2022-10-18T12:48:01.275Z,23.75
2022-10-18T12:50:34.923Z,21.03
2022-10-18T12:53:17.520Z,22.95
2022-10-18T12:55:49.870Z,20.80
2022-10-18T12:58:31.481Z,23.80
2022-10-18T13:01:08.177Z,29.03
2022-10-18T13:03:53.647Z,29.74
2022-10-18T13:06:23.995Z,30.88
2022-10-18T13:09:21.029Z,32.81
2022-10-18T13:11:58.566Z,32.53
2022-10-18T13:14:48.251Z,30.42
2022-10-18T13:17:35.696Z,30.19
2022-10-18T13:20:27.293Z,32.28
2022-10-18T13:23:31.655Z,33.39
2022-10-18T13:26:11.259Z,33.54
2022-10-18T13:28:49.138Z,31.88
2022-10-18T13:31:23.416Z,32.09
2022-10-18T13:33:54.093Z,27.33
2022-10-18T13:36:25.896Z,28.15
2022-10-18T13:39:03.740Z,32.14
2022-10-18T13:41:57.389Z,33.46
2022-10-18T13:44:37.831Z,34.72
2022-10-18T13:47:12.616Z,34.86
2022-10-18T13:49:59.475Z,35.59
2022-10-18T13:52:44.073Z,35.56
2022-10-18T13:55:34.907Z,35.12
2022-10-18T13:58:13.414Z,35.46
2022-10-18T14:01:00.523Z,34.97
2022-10-18T14:04:15.526Z,35.15
2022-10-18T14:06:47.392Z,35.24
2022-10-18T14:09:26.229Z,35.50
2022-10-18T14:12:11.319Z,35.91
2022-10-18T14:14:45.260Z,35.45
2022-10-18T14:17:24.812Z,36.05
2022-10-18T14:19:59.893Z,36.17
2022-10-18T14:22:35.877Z,36.01
2022-10-18T14:25:05.531Z,36.43
2022-10-18T14:27:34.916Z,36.29
2022-10-18T14:30:15.251Z,36.21
2022-10-18T14:32:49.030Z,36.74
2022-10-18T14:35:32.095Z,36.79
2022-10-18T14:38:02.491Z,36.52
2022-10-18T14:40:35.461Z,37.49
2022-10-18T14:43:06.243Z,36.72
2022-10-18T14:45:34.969Z,36.80
2022-10-18T14:48:14.778Z,36.83
2022-10-18T14:50:44.799Z,36.89
2022-10-18T14:53:18.938Z,36.64
2022-10-18T14:55:55.029Z,37.04
2022-10-18T14:58:23.928Z,37.11
2022-10-18T15:00:52.822Z,37.70
2022-10-18T15:03:23.675Z,38.02
2022-10-18T15:05:55.125Z,38.38
2022-10-18T15:08:25.951Z,38.11
2022-10-18T15:10:54.922Z,38.49
2022-10-18T15:13:25.240Z,37.81
2022-10-18T15:15:55.246Z,38.23
2022-10-18T15:18:27.925Z,37.78
2022-10-18T15:21:22.369Z,37.73
2022-10-18T15:23:52.159Z,38.16
2022-10-18T15:26:25.271Z,38.12
2022-10-18T15:29:00.430Z,38.37
2022-10-18T15:31:36.436Z,38.68
2022-10-18T15:34:20.927Z,38.32
2022-10-18T15:36:51.304Z,38.87
2022-10-18T15:39:22.568Z,38.45
2022-10-18T15:41:53.220Z,38.45
2022-10-18T15:44:31.732Z,38.53
2022-10-18T15:47:21.145Z,38.40
2022-10-18T15:49:58.277Z,38.35
2022-10-18T15:52:37.752Z,38.67
2022-10-18T15:55:46.430Z,38.86
2022-10-18T15:58:23.706Z,38.77
2022-10-18T16:00:54.449Z,39.04
2022-10-18T16:03:24.546Z,38.97
2022-10-18T16:06:00.635Z,38.81
2022-10-18T16:08:32.200Z,39.32
2022-10-18T16:11:01.473Z,39.11
2022-10-18T16:13:30.364Z,39.29
2022-10-18T16:16:03.036Z,39.72
2022-10-18T16:18:34.911Z,39.85
2022-10-18T16:21:06.679Z,40.15
2022-10-18T16:23:36.418Z,40.02
2022-10-18T16:26:05.528Z,39.60
2022-10-18T16:28:36.594Z,40.11
2022-10-18T16:31:10.058Z,39.88
2022-10-18T16:33:39.219Z,39.67
2022-10-18T16:36:12.933Z,39.41
2022-10-18T16:38:42.057Z,39.16
2022-10-18T16:41:13.455Z,39.23
2022-10-18T16:43:46.255Z,39.07
2022-10-18T16:46:18.374Z,39.30
2022-10-18T16:48:48.301Z,38.80
2022-10-18T16:51:19.012Z,39.11
2022-10-18T16:53:48.613Z,38.79
2022-10-18T16:56:22.215Z,38.55
2022-10-18T16:58:54.523Z,38.91
2022-10-18T17:01:24.893Z,38.90
2022-10-18T17:03:54.231Z,38.88
2022-10-18T17:06:32.284Z,38.49
2022-10-18T17:09:04.373Z,38.45
2022-10-18T17:11:38.360Z,38.63
2022-10-18T17:14:08.574Z,38.53
2022-10-18T17:16:48.726Z,38.71
2022-10-18T17:19:25.682Z,38.38
2022-10-18T17:22:03.382Z,38.61
2022-10-18T17:24:38.653Z,38.36
2022-10-18T17:27:20.633Z,38.30
2022-10-18T17:30:29.292Z,38.90
2022-10-18T17:33:23.368Z,38.93
2022-10-18T17:35:56.831Z,38.63
2022-10-18T17:38:29.782Z,38.70
2022-10-18T17:40:59.504Z,38.67
2022-10-18T17:43:30.124Z,38.86
2022-10-18T17:46:10.836Z,38.25
2022-10-18T17:48:42.663Z,38.34
2022-10-18T17:51:33.840Z,38.89
2022-10-18T17:54:21.603Z,38.84
2022-10-18T17:56:54.487Z,38.21
2022-10-18T17:59:32.353Z,38.62
2022-10-18T18:02:02.107Z,38.70
2022-10-18T18:04:31.119Z,38.70
2022-10-18T18:07:00.414Z,39.63
2022-10-18T18:09:31.504Z,39.28
2022-10-18T18:12:02.567Z,39.07
2022-10-18T18:14:31.802Z,39.19
2022-10-18T18:17:09.134Z,39.60
2022-10-18T18:22:18.492Z,39.61
2022-10-18T18:24:49.986Z,39.87
2022-10-18T18:27:19.166Z,39.46
2022-10-18T18:29:48.357Z,39.63
2022-10-18T18:32:20.769Z,39.96
2022-10-18T18:34:53.202Z,40.17
2022-10-18T18:37:56.974Z,40.03
2022-10-18T18:40:27.434Z,40.24
2022-10-18T18:43:07.194Z,40.17
2022-10-18T18:45:54.175Z,40.85
2022-10-18T18:48:24.658Z,40.50
2022-10-18T18:51:01.671Z,40.38
2022-10-18T18:53:37.759Z,40.78
2022-10-18T18:56:17.023Z,40.83
2022-10-18T18:58:48.528Z,40.76
2022-10-18T19:01:44.340Z,40.63
2022-10-18T19:04:31.598Z,41.10
2022-10-18T19:07:12.807Z,41.14
2022-10-18T19:09:44.766Z,41.16
2022-10-18T19:12:28.902Z,41.16
2022-10-18T19:14:58.127Z,42.02
2022-10-18T19:17:27.814Z,41.47
2022-10-18T19:19:59.217Z,41.78
2022-10-18T19:22:29.011Z,41.93
2022-10-18T19:24:58.260Z,41.69
2022-10-18T19:27:30.122Z,41.76
2022-10-18T19:29:59.094Z,41.96
2022-10-18T19:35:05.819Z,42.20
2022-10-18T19:37:34.795Z,42.33
2022-10-18T19:40:04.730Z,42.42
2022-10-18T19:42:36.263Z,42.94
2022-10-18T19:45:06.037Z,42.52
2022-10-18T19:47:34.751Z,42.81
2022-10-18T19:50:03.889Z,42.80
2022-10-18T19:52:33.137Z,42.73
2022-10-18T19:55:02.345Z,43.07
2022-10-18T19:57:36.181Z,43.09
2022-10-18T20:00:09.887Z,43.35
2022-10-18T20:02:59.439Z,43.46
2022-10-18T20:05:30.850Z,43.50
2022-10-18T20:08:03.835Z,43.40
2022-10-18T20:10:33.125Z,43.67
2022-10-18T20:13:03.622Z,44.08
2022-10-18T20:15:55.738Z,44.12
2022-10-18T20:18:33.303Z,44.27
2022-10-18T20:21:07.018Z,44.13
2022-10-18T20:23:37.649Z,44.21
2022-10-18T20:26:18.155Z,44.64
2022-10-18T20:28:58.836Z,44.66
2022-10-18T20:31:34.109Z,45.09
2022-10-18T20:34:14.854Z,44.74
2022-10-18T20:37:00.489Z,45.98
2022-10-18T20:39:31.146Z,45.93
2022-10-18T20:42:02.323Z,45.87
2022-10-18T20:44:36.522Z,46.13
2022-10-18T20:47:05.574Z,45.93
2022-10-18T20:49:38.095Z,46.09
2022-10-18T20:52:26.109Z,46.44
2022-10-18T20:54:58.211Z,46.68
2022-10-18T20:57:38.813Z,46.83
2022-10-18T21:00:16.808Z,47.68
2022-10-18T21:02:54.792Z,47.22
2022-10-18T21:05:24.510Z,47.62
2022-10-18T21:07:56.373Z,48.12
2022-10-18T21:10:27.693Z,48.76
2022-10-18T21:12:57.198Z,48.90
2022-10-18T21:15:32.895Z,49.05
2022-10-18T21:18:05.320Z,49.39
2022-10-18T21:20:39.256Z,49.59
2022-10-18T21:23:14.287Z,49.95
2022-10-18T21:25:48.749Z,50.60
2022-10-18T21:28:19.044Z,50.46
2022-10-18T21:30:50.964Z,50.67
2022-10-18T21:33:21.959Z,50.77
2022-10-18T21:35:53.127Z,51.61
2022-10-18T21:38:30.365Z,52.51
2022-10-18T21:41:00.762Z,52.04
2022-10-18T21:43:41.442Z,52.71
2022-10-18T21:46:27.357Z,53.58
2022-10-18T21:48:57.066Z,54.31
2022-10-18T21:51:29.402Z,54.30
2022-10-18T21:54:01.882Z,54.60
2022-10-18T21:56:34.353Z,55.31
2022-10-18T21:59:04.548Z,56.37
2022-10-18T22:01:38.921Z,56.08
2022-10-18T22:04:20.820Z,56.89
2022-10-18T22:06:50.513Z,57.74
2022-10-18T22:09:25.551Z,57.62
2022-10-18T22:11:55.337Z,58.49
2022-10-18T22:14:24.872Z,58.81
2022-10-18T22:16:54.954Z,60.15
2022-10-18T22:19:24.102Z,60.59
2022-10-18T22:21:53.066Z,60.43
2022-10-18T22:24:21.949Z,61.19
2022-10-18T22:26:51.216Z,61.61
2022-10-18T22:29:21.974Z,62.30
2022-10-18T22:31:52.817Z,62.62
2022-10-18T22:34:24.603Z,62.27
2022-10-18T22:36:53.350Z,63.23
2022-10-18T22:39:22.389Z,63.35
2022-10-18T22:41:55.859Z,63.26
2022-10-18T22:44:25.138Z,64.29
2022-10-18T22:46:54.030Z,63.59
2022-10-18T22:49:24.165Z,64.99
2022-10-18T22:51:52.937Z,64.84
2022-10-18T22:54:22.148Z,65.19
2022-10-18T22:56:51.401Z,65.06
2022-10-18T22:59:20.223Z,66.44
2022-10-18T23:01:49.162Z,65.51
2022-10-18T23:04:17.955Z,66.22
2022-10-18T23:06:48.225Z,66.29
2022-10-18T23:09:16.911Z,67.25
2022-10-18T23:11:47.750Z,67.06
2022-10-18T23:14:16.485Z,67.31
2022-10-18T23:16:45.661Z,67.15
2022-10-18T23:19:16.383Z,67.55
2022-10-18T23:21:45.520Z,68.06
2022-10-18T23:24:16.051Z,67.72
2022-10-18T23:26:44.882Z,67.63
2022-10-18T23:29:14.003Z,67.87
2022-10-18T23:31:45.880Z,67.62
2022-10-18T23:34:15.355Z,67.98
2022-10-18T23:39:19.864Z,68.10
2022-10-18T23:41:48.677Z,68.13
2022-10-18T23:44:17.618Z,66.76
2022-10-18T23:46:48.562Z,67.14
2022-10-18T23:49:22.536Z,66.72
2022-10-18T23:51:56.034Z,67.71
2022-10-18T23:54:52.541Z,67.92
2022-10-18T23:57:23.703Z,69.50
2022-10-18T23:59:52.824Z,69.77
